Time;durP1;ratioP1;P1;durP2;ratioP2;P2;SDS_P1;SDS_P2;PMS_P1;PMS_P2;Temp;Humidity;BMP_temperature;BMP_pressure;BME280_temperature;BME280_humidity;BME280_pressure;Samples;Min_cycle;Max_cycle;Signal;HPM_P1;HPM_P2
2022/05/02 00:00:32;;;;;;;5.22;4.65;;;;;;;20.47;53.31;101026.09;4995677;28;20046;-71
2022/05/02 00:02:59;;;;;;;4.93;4.43;;;;;;;20.45;53.16;101030.75;4994774;28;20054;-71
2022/05/02 00:05:27;;;;;;;5.22;4.60;;;;;;;20.46;53.51;101027.09;4994947;28;20055;-71
2022/05/02 00:07:54;;;;;;;5.53;5.03;;;;;;;20.45;53.40;101018.16;4995159;28;20042;-71
2022/05/02 00:10:22;;;;;;;5.00;4.50;;;;;;;20.45;53.39;101020.84;4995201;28;20042;-71
2022/05/02 00:12:49;;;;;;;5.13;4.07;;;;;;;20.44;53.17;101018.31;4994641;28;20057;-71
2022/05/02 00:15:17;;;;;;;4.88;4.10;;;;;;;20.44;53.10;101016.47;4994623;28;20410;-71
2022/05/02 00:17:57;;;;;;;6.03;4.00;;;;;;;20.44;53.29;101013.78;4994461;28;20473;-71
2022/05/02 00:20:29;;;;;;;4.85;4.20;;;;;;;20.44;53.09;101011.09;4995274;28;20053;-71
2022/05/02 00:23:00;;;;;;;6.45;4.05;;;;;;;20.44;53.21;101004.84;4954667;28;1184153;-71
2022/05/02 00:25:28;;;;;;;5.47;3.97;;;;;;;20.44;53.16;101010.22;4995615;28;20057;-71
2022/05/02 00:27:56;;;;;;;4.40;3.88;;;;;;;20.43;53.12;101004.00;4996717;28;20053;-71
2022/05/02 00:30:24;;;;;;;4.45;4.03;;;;;;;20.42;52.93;100999.63;4994556;28;20043;-71
2022/05/02 00:32:52;;;;;;;4.78;4.30;;;;;;;20.44;52.92;101007.53;4995920;28;20050;-71
2022/05/02 00:35:20;;;;;;;4.50;4.10;;;;;;;20.45;53.08;101001.16;4995788;28;20042;-71
2022/05/02 00:37:47;;;;;;;6.43;4.70;;;;;;;20.44;52.85;100999.47;4995318;28;20080;-71
2022/05/02 00:40:16;;;;;;;4.95;4.45;;;;;;;20.43;52.98;100992.41;4995324;28;20039;-72
2022/05/02 00:42:46;;;;;;;4.80;4.30;;;;;;;20.43;52.86;100998.63;4995905;28;20388;-71
2022/05/02 00:45:15;;;;;;;4.28;3.88;;;;;;;20.43;52.71;100992.41;4996354;28;20474;-71
2022/05/02 00:47:54;;;;;;;4.55;4.15;;;;;;;20.43;52.84;100987.03;4994879;28;20050;-71
2022/05/02 00:50:41;;;;;;;4.82;3.65;;;;;;;20.43;52.76;100995.94;4996239;28;20058;-71
2022/05/02 00:53:12;;;;;;;4.82;3.55;;;;;;;20.44;52.95;100999.47;4994802;28;20467;-72
2022/05/02 00:55:41;;;;;;;3.92;3.50;;;;;;;20.43;52.76;100995.09;4993985;28;20069;-72
2022/05/02 00:58:08;;;;;;;4.38;3.97;;;;;;;20.43;52.76;101003.16;4994977;28;20394;-71
2022/05/02 01:00:37;;;;;;;4.63;4.10;;;;;;;20.43;52.71;100997.78;4995339;28;20075;-71
2022/05/02 01:03:07;;;;;;;5.20;4.30;;;;;;;20.43;52.60;101001.31;4995640;28;20376;-71
2022/05/02 01:08:28;;;;;;;4.63;4.03;;;;;;;20.42;52.81;100998.78;4994947;28;20050;-71
2022/05/02 01:10:56;;;;;;;4.32;3.92;;;;;;;20.43;52.84;101003.16;4995742;28;20045;-71
2022/05/02 01:13:44;;;;;;;4.05;3.55;;;;;;;20.41;52.63;100995.22;4995041;28;20058;-71
2022/05/02 01:16:17;;;;;;;4.22;3.35;;;;;;;20.41;52.64;100992.53;4994555;28;20459;-71
2022/05/02 01:18:47;;;;;;;5.47;3.80;;;;;;;20.43;52.60;100997.78;4995531;28;20483;-71
2022/05/02 01:21:17;;;;;;;4.68;3.95;;;;;;;20.42;52.49;100996.09;4993413;28;20042;-71
2022/05/02 01:23:47;;;;;;;4.43;3.95;;;;;;;20.42;52.60;100990.72;4994847;28;20122;-71
2022/05/02 01:26:15;;;;;;;4.68;4.15;;;;;;;20.41;52.60;100995.22;4994461;28;20043;-71
2022/05/02 01:28:54;;;;;;;5.18;3.78;;;;;;;20.42;52.59;100990.72;4994604;28;20057;-71
2022/05/02 01:31:22;;;;;;;4.07;3.70;;;;;;;20.41;52.45;100988.97;4994551;28;20049;-71
2022/05/02 01:33:51;;;;;;;4.68;4.15;;;;;;;20.40;52.58;100988.13;4994186;28;20050;-71
2022/05/02 01:36:20;;;;;;;4.13;3.72;;;;;;;20.40;52.57;100976.53;4994042;28;20050;-71
2022/05/02 01:38:48;;;;;;;4.32;3.88;;;;;;;20.40;52.34;100985.44;4994522;28;20490;-71
2022/05/02 01:41:16;;;;;;;5.53;4.22;;;;;;;20.39;52.44;100981.06;4994469;28;20046;-71
2022/05/02 01:43:43;;;;;;;4.22;3.83;;;;;;;20.40;52.40;100988.13;4994823;28;20054;-72
2022/05/02 01:46:12;;;;;;;6.65;3.85;;;;;;;20.40;52.44;100985.44;4994959;28;20054;-71
2022/05/02 01:48:41;;;;;;;5.93;4.00;;;;;;;20.40;52.48;100981.91;4994855;28;20042;-71
2022/05/02 01:51:08;;;;;;;4.50;3.85;;;;;;;20.39;52.33;100989.13;4994912;28;20042;-71
2022/05/02 01:53:35;;;;;;;3.80;3.33;;;;;;;20.39;52.39;100975.69;4992731;28;20057;-72
2022/05/02 01:56:03;;;;;;;6.32;3.97;;;;;;;20.39;52.29;100981.06;4993816;28;20050;-71
2022/05/02 01:58:31;;;;;;;4.22;3.65;;;;;;;20.40;52.33;100976.53;4992904;28;20049;-71
2022/05/02 02:00:58;;;;;;;3.95;3.50;;;;;;;20.38;52.20;100975.84;4994833;28;20046;-71
2022/05/02 02:03:26;;;;;;;4.38;3.85;;;;;;;20.39;52.22;100973.00;4992977;28;20054;-70
2022/05/02 02:05:53;;;;;;;3.88;3.45;;;;;;;20.38;52.04;100968.63;4993234;28;20430;-71
2022/05/02 02:08:29;;;;;;;4.25;3.83;;;;;;;20.39;52.29;100980.22;4992929;28;20066;-71
2022/05/02 02:10:58;;;;;;;;;;;;;;;20.39;52.12;100977.53;4995909;28;20061;-71
2022/05/02 02:13:25;;;;;;;5.57;3.88;;;;;;;20.38;52.14;100976.69;4994440;28;19922;-71
2022/05/02 02:15:53;;;;;;;4.35;3.53;;;;;;;20.38;52.23;100970.47;4995103;28;20050;-71
2022/05/02 02:18:21;;;;;;;5.97;4.00;;;;;;;20.38;52.13;100973.16;4994315;28;20388;-71
2022/05/02 02:20:51;;;;;;;5.55;3.70;;;;;;;20.38;52.09;100973.16;4993646;28;20406;-71
2022/05/02 02:23:20;;;;;;;4.07;3.40;;;;;;;20.38;52.11;100965.06;4993933;28;20061;-71
2022/05/02 02:25:48;;;;;;;4.57;3.42;;;;;;;20.37;52.08;100972.25;4994247;28;20050;-71
2022/05/02 02:28:16;;;;;;;4.70;3.63;;;;;;;20.38;52.10;100967.75;4994178;28;20046;-72
2022/05/02 02:30:44;;;;;;;3.53;2.92;;;;;;;20.36;52.08;100959.81;4994477;28;20054;-71
2022/05/02 02:33:10;;;;;;;4.60;3.78;;;;;;;20.37;52.11;100958.81;4992718;28;20058;-71
2022/05/02 02:35:38;;;;;;;4.00;3.47;;;;;;;20.36;52.06;100956.28;4993557;28;20410;-71
2022/05/02 02:38:09;;;;;;;3.88;3.53;;;;;;;20.36;52.04;100967.03;4993979;28;20057;-71
2022/05/02 02:40:36;;;;;;;4.32;3.92;;;;;;;20.37;52.04;100961.50;4994841;28;20046;-71
2022/05/02 02:43:03;;;;;;;4.25;3.85;;;;;;;20.36;52.01;100962.50;4993916;28;20049;-71
2022/05/02 02:45:31;;;;;;;4.40;3.65;;;;;;;20.35;52.07;100955.44;4992854;28;20050;-71
2022/05/02 02:47:58;;;;;;;4.82;4.00;;;;;;;20.36;52.15;100961.66;4993812;28;20050;-71
2022/05/02 02:50:25;;;;;;;4.00;3.50;;;;;;;20.36;52.13;100958.97;4992585;28;20073;-71
2022/05/02 02:52:53;;;;;;;4.03;3.58;;;;;;;20.35;52.08;100952.75;4992249;28;20057;-71
2022/05/02 02:55:20;;;;;;;4.63;3.33;;;;;;;20.35;52.07;100957.28;4993964;28;20053;-71
2022/05/02 02:57:48;;;;;;;4.30;3.53;;;;;;;20.34;51.95;100948.38;4994292;28;20046;-70
2022/05/02 03:00:15;;;;;;;3.92;3.53;;;;;;;20.34;51.98;100951.06;4993488;28;20053;-71
2022/05/02 03:02:43;;;;;;;4.13;3.72;;;;;;;20.34;52.01;100948.38;4993403;28;20367;-71
2022/05/02 03:07:58;;;;;;;4.57;3.40;;;;;;;20.34;51.91;100944.81;4992097;28;20057;-71
2022/05/02 03:10:28;;;;;;;4.07;3.67;;;;;;;20.34;51.82;100947.50;4994089;28;20386;-71
2022/05/02 03:12:56;;;;;;;4.00;3.60;;;;;;;20.34;51.84;100947.50;4993373;28;20045;-71
2022/05/02 03:15:24;;;;;;;4.05;3.65;;;;;;;20.33;52.05;100954.69;4994351;28;20054;-71
2022/05/02 03:17:51;;;;;;;4.88;4.30;;;;;;;20.33;51.83;100956.53;4996843;28;20054;-71
2022/05/02 03:20:18;;;;;;;5.57;4.07;;;;;;;20.34;52.16;100950.19;4996776;28;20054;-71
2022/05/02 03:22:46;;;;;;;4.63;4.13;;;;;;;20.32;51.98;100944.94;4997162;28;20486;-71
2022/05/02 03:25:13;;;;;;;4.18;3.35;;;;;;;20.33;52.14;100957.38;4996944;28;20054;-71
2022/05/02 03:27:41;;;;;;;4.88;3.83;;;;;;;20.35;51.94;100954.59;4997271;28;20058;-71
2022/05/02 03:30:08;;;;;;;4.43;3.80;;;;;;;20.33;51.86;100948.47;4996844;28;20490;-71
2022/05/02 03:32:36;;;;;;;6.00;4.00;;;;;;;20.32;51.86;100953.00;4996705;28;20042;-71
2022/05/02 03:35:04;;;;;;;4.15;3.75;;;;;;;20.33;51.88;100948.47;4996422;28;20053;-70
2022/05/02 03:37:31;;;;;;;4.85;3.83;;;;;;;20.32;51.96;100950.31;4995556;28;20042;-70
2022/05/02 03:39:58;;;;;;;3.92;3.53;;;;;;;20.32;51.74;100936.03;4996640;28;20394;-71
2022/05/02 03:42:26;;;;;;;4.00;3.60;;;;;;;20.32;51.99;100939.56;4996378;28;20058;-71
2022/05/02 03:44:53;;;;;;;7.57;3.88;;;;;;;20.32;51.84;100936.03;4996660;28;20487;-71
2022/05/02 03:47:20;;;;;;;4.53;3.67;;;;;;;20.31;51.99;100924.44;4996361;28;20050;-70
2022/05/02 03:49:48;;;;;;;4.30;3.90;;;;;;;20.33;51.94;100935.03;4996319;28;20054;-71
2022/05/02 03:52:15;;;;;;;4.63;3.97;;;;;;;20.32;52.05;100936.03;4996317;28;20371;-71
2022/05/02 03:54:42;;;;;;;3.45;3.15;;;;;;;20.32;51.82;100936.03;4996214;28;20161;-71
2022/05/02 03:57:10;;;;;;;4.20;3.60;;;;;;;20.31;51.78;100932.50;4996709;28;20038;-71
2022/05/02 03:59:37;;;;;;;4.05;3.60;;;;;;;20.32;51.75;100938.72;4996127;28;20086;-71
2022/05/02 04:02:05;;;;;;;5.20;4.13;;;;;;;20.31;51.91;100940.56;4996283;28;20394;-71
2022/05/02 04:04:33;;;;;;;3.85;3.45;;;;;;;20.31;51.83;100939.72;4996184;28;20355;-72
2022/05/02 04:07:00;;;;;;;4.45;4.05;;;;;;;20.30;51.80;100940.72;4996190;28;20042;-71
2022/05/02 04:09:27;;;;;;;5.85;3.75;;;;;;;20.31;51.73;100939.72;4996042;28;20479;-71
2022/05/02 04:11:56;;;;;;;4.43;3.65;;;;;;;20.30;51.58;100933.47;4996008;28;20047;-71
2022/05/02 04:14:24;;;;;;;4.18;3.67;;;;;;;20.30;51.79;100938.00;4996580;28;20390;-71
2022/05/02 04:16:51;;;;;;;4.13;3.72;;;;;;;20.29;51.56;100936.28;4995898;28;20053;-71
2022/05/02 04:19:19;;;;;;;5.78;4.03;;;;;;;20.29;51.55;100942.50;4994878;28;20491;-72
2022/05/02 04:21:46;;;;;;;5.43;4.05;;;;;;;20.28;51.64;100948.88;4996337;28;20049;-72
2022/05/02 04:24:14;;;;;;;6.65;3.85;;;;;;;20.29;51.48;100949.72;4995712;28;20061;-72
2022/05/02 04:26:41;;;;;;;4.07;3.67;;;;;;;20.29;51.58;100947.03;4995135;28;20050;-71
2022/05/02 04:29:09;;;;;;;4.55;4.05;;;;;;;20.28;51.51;100940.81;4993926;28;20420;-72
2022/05/02 04:31:36;;;;;;;5.30;3.65;;;;;;;20.29;51.39;100947.03;4995541;28;20384;-72
2022/05/02 04:34:03;;;;;;;7.32;3.92;;;;;;;20.29;51.39;100949.72;4997132;28;20043;-72
2022/05/02 04:36:31;;;;;;;4.75;3.58;;;;;;;20.27;51.33;100932.91;4996901;28;20479;-72
2022/05/02 04:38:58;;;;;;;4.10;3.50;;;;;;;20.27;51.43;100947.19;4995984;28;20050;-72
2022/05/02 04:41:29;;;;;;;4.05;3.65;;;;;;;20.28;51.37;100950.72;4996157;28;20051;-74
2022/05/02 04:43:56;;;;;;;4.22;3.60;;;;;;;20.28;51.38;100953.41;4995520;28;20046;-71
2022/05/02 04:46:26;;;;;;;4.10;3.70;;;;;;;20.27;51.29;100954.41;4995693;28;20072;-71
2022/05/02 04:48:54;;;;;;;5.40;3.72;;;;;;;20.26;51.27;100953.56;4996606;28;20046;-72
2022/05/02 04:51:21;;;;;;;6.40;3.75;;;;;;;20.26;51.37;100945.50;4995094;28;20054;-72
2022/05/02 04:53:48;;;;;;;4.25;3.85;;;;;;;20.25;51.34;100952.72;4995507;28;20042;-72
2022/05/02 04:56:16;;;;;;;5.10;3.80;;;;;;;20.26;51.34;100956.25;4995164;28;20046;-71
2022/05/02 04:58:43;;;;;;;4.47;3.88;;;;;;;20.25;51.33;100954.53;4995228;28;20057;-71
2022/05/02 05:01:10;;;;;;;4.03;3.45;;;;;;;20.25;51.22;100949.16;4994799;28;20050;-71
2022/05/02 05:03:38;;;;;;;4.10;3.70;;;;;;;20.24;51.39;100951.00;4994898;28;20046;-72
2022/05/02 05:06:06;;;;;;;4.22;3.63;;;;;;;20.25;51.25;100950.03;4995473;28;20042;-72
2022/05/02 05:08:34;;;;;;;4.95;3.58;;;;;;;20.25;51.36;100955.41;4994765;28;20047;-72
2022/05/02 05:11:19;;;;;;;5.13;3.92;;;;;;;20.24;51.29;100953.69;4994738;28;20050;-71
2022/05/02 05:17:36;;;;;;;4.03;3.53;;;;;;;20.25;51.31;100954.53;4995340;28;20386;-71
2022/05/02 05:20:21;;;;;;;4.60;3.58;;;;;;;20.24;51.35;100947.47;4994121;28;20047;-71
2022/05/02 05:22:58;;;;;;;4.18;3.75;;;;;;;20.24;51.17;100947.47;4993167;28;20046;-70
2022/05/02 05:25:36;;;;;;;5.20;3.83;;;;;;;20.24;51.14;100958.22;4994893;28;20482;-71
2022/05/02 05:28:09;;;;;;;4.05;3.35;;;;;;;20.24;51.28;100964.44;4995033;28;20053;-71
2022/05/02 05:30:43;;;;;;;6.45;3.50;;;;;;;20.24;51.35;100960.91;4994327;28;20053;-71
2022/05/02 05:33:52;;;;;;;4.00;3.60;;;;;;;20.22;51.25;100966.41;4994664;28;20054;-71
2022/05/02 05:36:38;;;;;;;6.68;4.40;;;;;;;20.23;51.38;100969.97;5011885;28;20506;-71
2022/05/02 05:39:10;;;;;;;4.47;4.07;;;;;;;20.23;51.25;100970.81;5012257;28;20060;-71
2022/05/02 05:41:58;;;;;;;5.57;4.28;;;;;;;20.23;51.22;100969.97;5012077;28;20383;-71
2022/05/02 05:44:39;;;;;;;5.20;3.53;;;;;;;20.23;51.20;100959.19;5011972;28;20498;-71
2022/05/02 05:47:21;;;;;;;4.10;3.70;;;;;;;20.23;51.35;100969.97;5012305;28;20053;-71
2022/05/02 05:50:00;;;;;;;4.28;3.88;;;;;;;20.22;51.23;100973.63;5012670;28;20149;-71
2022/05/02 05:52:50;;;;;;;4.72;4.00;;;;;;;20.23;51.27;100976.19;5012382;28;20053;-71
2022/05/02 05:56:09;;;;;;;4.50;3.78;;;;;;;20.22;51.29;100979.84;5012099;28;20057;-71
2022/05/02 05:58:45;;;;;;;4.95;4.13;;;;;;;20.22;51.31;100987.91;4933952;29;20460;-71
2022/05/02 06:01:29;;;;;;;7.10;5.03;;;;;;;20.22;51.38;100996.00;4934649;29;20419;-71
2022/05/02 06:04:06;;;;;;;4.88;3.75;;;;;;;20.22;51.38;100995.16;4934735;29;20135;-71
2022/05/02 06:06:37;;;;;;;5.18;4.50;;;;;;;20.21;51.33;100994.25;4934500;29;20468;-72
2022/05/02 06:09:05;;;;;;;6.25;4.43;;;;;;;20.22;51.46;100998.69;4934113;29;20062;-72
2022/05/02 06:11:35;;;;;;;5.57;4.68;;;;;;;20.21;51.49;101010.38;4934362;29;20054;-72
2022/05/02 06:14:03;;;;;;;5.20;4.40;;;;;;;20.21;51.42;101002.31;4915638;29;20500;-72
2022/05/02 06:19:25;;;;;;;5.90;4.45;;;;;;;20.22;51.47;101005.91;4915549;29;20056;-71
2022/05/02 06:21:54;;;;;;;6.10;4.53;;;;;;;20.20;51.46;100992.56;4915214;29;20064;-71
2022/05/02 06:24:31;;;;;;;5.10;3.92;;;;;;;20.21;51.62;100996.94;4914863;29;20063;-71
2022/05/02 06:27:01;;;;;;;4.60;4.10;;;;;;;20.22;51.58;100997.81;4914708;29;20072;-71
2022/05/02 06:29:28;;;;;;;6.05;4.63;;;;;;;20.22;51.58;100995.16;4914838;29;20075;-71
2022/05/02 06:31:58;;;;;;;5.40;4.10;;;;;;;20.21;51.66;101002.31;4914839;29;20056;-71
2022/05/02 06:34:28;;;;;;;7.07;4.78;;;;;;;20.22;51.54;100998.69;4917487;28;20441;-71
2022/05/02 06:37:08;;;;;;;10.15;9.10;;;;;;;20.17;51.15;100994.66;4994309;28;20050;-71
2022/05/02 06:39:50;;;;;;;11.88;10.25;;;;;;;20.02;51.19;100988.81;4993502;28;20061;-71
2022/05/02 06:42:24;;;;;;;14.45;11.38;;;;;;;19.89;51.08;100986.31;4993764;28;20050;-71
2022/05/02 06:44:54;;;;;;;12.35;10.02;;;;;;;19.81;51.51;100990.63;4993569;28;20045;-72
2022/05/02 06:47:40;;;;;;;11.77;10.68;;;;;;;19.76;51.60;100989.19;4994184;28;20466;-71
2022/05/02 06:50:10;;;;;;;12.73;11.13;;;;;;;19.68;51.66;100988.13;4979950;28;20056;-71
2022/05/02 06:53:02;;;;;;;13.57;12.27;;;;;;;19.60;51.87;100991.44;4977174;28;20054;-71
2022/05/02 06:55:47;;;;;;;16.38;10.68;;;;;;;19.54;52.67;100994.66;4977988;28;20051;-71
2022/05/02 06:58:49;;;;;;;17.40;13.23;;;;;;;19.50;53.04;101001.28;4977746;28;20058;-71
2022/05/02 07:01:57;;;;;;;18.70;15.32;;;;;;;19.40;53.11;100993.13;4977475;28;20050;-72
2022/05/02 07:04:24;;;;;;;15.15;13.63;;;;;;;19.34;52.75;100999.00;4995362;28;20066;-73
2022/05/02 07:07:03;;;;;;;16.48;12.95;;;;;;;19.30;52.93;101002.94;4995682;28;20061;-72
2022/05/02 07:09:40;;;;;;;16.25;11.90;;;;;;;19.32;53.37;101000.94;4995121;28;20066;-73
2022/05/02 07:12:16;;;;;;;14.10;12.60;;;;;;;19.33;53.23;101002.69;4994662;28;20057;-72
2022/05/02 07:15:02;;;;;;;14.63;10.70;;;;;;;19.36;53.75;101001.56;4994887;28;20054;-72
2022/05/02 07:17:44;;;;;;;14.93;12.32;;;;;;;19.42;53.69;101006.44;4995523;28;20050;-71
2022/05/02 07:20:46;;;;;;;12.50;11.10;;;;;;;19.42;54.07;101009.13;4994939;28;20050;-72
2022/05/02 07:23:53;;;;;;;14.30;12.10;;;;;;;19.45;54.04;101001.66;4978499;28;20058;-72
2022/05/02 07:26:21;;;;;;;15.02;11.65;;;;;;;19.47;54.09;101012.25;4994588;28;20058;-72
2022/05/02 07:28:51;;;;;;;13.15;10.57;;;;;;;19.50;53.74;101010.16;4994854;28;20058;-73
2022/05/02 07:31:21;;;;;;;12.65;11.45;;;;;;;19.52;54.11;101007.34;4994966;28;20058;-72
2022/05/02 07:33:50;;;;;;;12.80;11.50;;;;;;;19.52;54.05;101012.72;4994572;28;20054;-71
2022/05/02 07:36:22;;;;;;;13.57;11.73;;;;;;;19.55;54.02;101006.25;4994684;28;20581;-71
2022/05/02 07:39:08;;;;;;;13.90;12.30;;;;;;;19.55;53.61;101006.25;4995001;28;20054;-72
2022/05/02 07:41:37;;;;;;;12.68;11.38;;;;;;;19.55;53.88;101006.25;4984319;28;20062;-73
2022/05/02 07:44:07;;;;;;;14.07;12.77;;;;;;;19.55;54.05;101011.63;4975901;28;20061;-71
2022/05/02 07:46:43;;;;;;;18.25;12.88;;;;;;;19.55;53.95;101019.66;4977422;28;20359;-73
2022/05/02 07:49:13;;;;;;;14.27;12.50;;;;;;;19.55;54.52;101007.09;4976878;28;20062;-72
2022/05/02 07:51:46;;;;;;;14.75;12.80;;;;;;;19.58;54.58;101008.69;4977303;28;20055;-72
2022/05/02 07:54:15;;;;;;;;;;;;;;;19.61;54.39;101014.69;4977001;28;20050;-72
2022/05/02 07:56:47;;;;;;;12.20;10.85;;;;;;;19.64;54.22;101010.88;4976221;28;19922;-72
2022/05/02 07:59:16;;;;;;;11.45;10.25;;;;;;;19.68;54.08;101015.00;4975815;28;20046;-71
2022/05/02 08:01:44;;;;;;;11.07;9.98;;;;;;;19.72;53.96;101011.91;4976218;28;20050;-73
2022/05/02 08:04:13;;;;;;;14.32;11.60;;;;;;;19.75;53.57;101008.97;4976580;28;20034;-72
2022/05/02 08:06:49;;;;;;;14.05;12.02;;;;;;;19.78;53.26;101015.09;4976777;28;20410;-75
2022/05/02 08:09:35;;;;;;;11.65;10.57;;;;;;;19.79;52.96;101017.63;4976892;28;20058;-73
2022/05/02 08:12:21;;;;;;;12.63;11.30;;;;;;;19.81;52.89;101012.13;4976354;28;20510;-74
2022/05/02 08:15:08;;;;;;;12.43;11.20;;;;;;;19.82;53.13;101016.53;4976679;28;20050;-72
2022/05/02 08:17:42;;;;;;;14.23;10.68;;;;;;;19.87;53.45;101014.28;4976002;28;20074;-73
2022/05/02 08:20:24;;;;;;;12.52;9.63;;;;;;;19.90;53.66;101008.66;4974875;28;20046;-72
2022/05/02 08:29:30;;;;;;;10.27;9.27;;;;;;;19.99;53.94;101019.47;4977833;28;20043;-72
2022/05/02 08:32:10;;;;;;;10.00;9.02;;;;;;;20.03;53.92;101021.91;4982723;28;20050;-72
2022/05/02 08:34:40;;;;;;;13.25;9.13;;;;;;;20.05;53.47;101014.53;4975878;28;20506;-71
2022/05/02 08:37:41;;;;;;;11.02;8.13;;;;;;;20.06;53.13;101022.50;4976026;28;20051;-71
2022/05/02 08:40:09;;;;;;;9.23;8.32;;;;;;;20.07;53.49;101021.50;4975470;28;20053;-72
2022/05/02 08:42:49;;;;;;;9.13;8.23;;;;;;;20.07;52.47;101013.44;4976079;28;20054;-73
2022/05/02 08:45:55;;;;;;;7.13;6.45;;;;;;;20.06;52.43;101011.75;4975003;28;20062;-74
2022/05/02 08:48:48;;;;;;;9.02;6.95;;;;;;;20.05;52.60;101017.22;4976077;28;20058;-73
2022/05/02 08:51:37;;;;;;;8.50;7.00;;;;;;;20.06;52.28;101022.50;4975310;28;20046;-72
2022/05/02 08:54:41;;;;;;;7.28;6.60;;;;;;;20.06;52.43;101019.81;4975238;28;20050;-72
2022/05/02 08:57:41;;;;;;;8.48;6.90;;;;;;;20.06;52.18;101014.44;4975629;28;20046;-72
2022/05/02 09:00:11;;;;;;;8.05;6.75;;;;;;;20.04;52.01;101018.22;4975472;28;20047;-71
2022/05/02 09:03:38;;;;;;;9.32;6.95;;;;;;;20.04;51.68;101016.38;4975642;28;20051;-72
2022/05/02 09:06:45;;;;;;;6.25;5.70;;;;;;;20.05;51.35;101018.06;4992912;28;20059;-72
2022/05/02 09:09:37;;;;;;;6.65;6.05;;;;;;;20.05;51.51;101027.97;4992422;28;20375;-71
2022/05/02 09:12:13;;;;;;;7.93;6.13;;;;;;;20.02;50.89;101021.06;4991857;28;20054;-71
2022/05/02 09:14:59;;;;;;;7.05;5.85;;;;;;;20.04;50.92;101027.13;4991962;28;20050;-70
2022/05/02 09:18:04;;;;;;;8.68;6.30;;;;;;;20.04;51.17;101019.06;4992271;28;20139;-73
2022/05/02 09:20:55;;;;;;;8.20;6.07;;;;;;;20.05;51.67;101018.06;4976625;28;20057;-71
2022/05/02 09:23:37;;;;;;;6.00;5.50;;;;;;;20.07;52.09;101017.97;4996698;28;20053;-71
2022/05/02 09:26:39;;;;;;;7.85;5.53;;;;;;;20.08;52.33;101012.44;4996218;28;20509;-71
2022/05/02 09:29:38;;;;;;;7.03;5.53;;;;;;;20.07;51.48;101012.59;5012014;28;20046;-72
2022/05/02 09:32:05;;;;;;;5.70;4.97;;;;;;;20.08;51.84;101012.44;5011674;28;20053;-71
2022/05/02 09:34:36;;;;;;;7.22;5.82;;;;;;;20.09;51.80;101011.47;4995999;28;20453;-72
2022/05/02 09:37:07;;;;;;;6.53;5.93;;;;;;;20.09;51.71;101005.22;5010994;28;20065;-72
2022/05/02 09:39:52;;;;;;;6.22;5.60;;;;;;;20.10;51.89;101009.66;5011253;28;20049;-72
2022/05/02 09:42:46;;;;;;;5.10;4.60;;;;;;;20.11;51.81;101009.50;5007848;28;20065;-72
2022/05/02 09:52:02;;;;;;;5.10;4.28;;;;;;;20.18;51.79;101005.31;4992256;28;20482;-71
2022/05/02 09:57:57;;;;;;;5.68;4.68;;;;;;;20.23;51.82;100999.53;5011240;28;20085;-71
2022/05/02 10:03:24;;;;;;;4.97;3.97;;;;;;;20.27;51.84;101008.19;5011309;28;20534;-71
2022/05/02 10:06:16;;;;;;;5.03;4.50;;;;;;;20.27;51.89;101000.97;5011092;28;20053;-71
2022/05/02 10:09:02;;;;;;;4.38;3.92;;;;;;;20.28;51.76;101007.19;5011740;28;20442;-72
2022/05/02 10:11:38;;;;;;;4.80;4.38;;;;;;;20.29;51.79;100995.44;5010925;28;20061;-72
2022/05/02 10:14:11;;;;;;;4.38;3.97;;;;;;;20.29;51.66;100995.44;5011070;28;20080;-71
2022/05/02 10:16:54;;;;;;;4.90;4.18;;;;;;;20.31;51.86;100998.84;4995375;28;20058;-72
2022/05/02 10:19:39;;;;;;;5.43;4.20;;;;;;;20.32;51.76;100995.19;5011095;28;20050;-72
2022/05/02 10:22:16;;;;;;;4.13;3.72;;;;;;;20.31;51.66;100994.31;4994462;28;20498;-72
2022/05/02 10:25:01;;;;;;;3.88;3.45;;;;;;;20.33;51.70;100991.50;5011756;28;20057;-73
2022/05/02 10:28:05;;;;;;;4.53;4.13;;;;;;;20.33;51.61;100986.97;5014445;28;20551;-71
2022/05/02 10:31:04;;;;;;;4.35;3.78;;;;;;;20.34;52.24;100990.53;5014089;28;20050;-72
2022/05/02 10:33:47;;;;;;;4.53;3.75;;;;;;;20.36;52.14;100989.38;5004683;28;20059;-73
2022/05/02 10:36:15;;;;;;;4.15;3.63;;;;;;;20.36;51.86;100988.53;4977848;28;20069;-73
2022/05/02 10:38:55;;;;;;;4.97;3.55;;;;;;;20.37;52.26;100980.34;4978177;28;20046;-71
2022/05/02 10:41:27;;;;;;;5.00;3.50;;;;;;;20.38;51.98;100978.53;4977807;28;20062;-71
2022/05/02 10:44:03;;;;;;;4.53;4.05;;;;;;;20.38;51.88;100978.53;4976485;28;20079;-72
2022/05/02 10:46:34;;;;;;;6.55;3.65;;;;;;;20.38;51.84;100987.44;4977526;28;20050;-72
2022/05/02 10:49:13;;;;;;;5.82;4.00;;;;;;;20.39;52.37;100978.38;4977818;28;20047;-74
2022/05/02 10:51:40;;;;;;;6.55;4.07;;;;;;;20.40;52.18;100976.53;4978001;28;20051;-73
2022/05/02 10:54:14;;;;;;;3.88;3.53;;;;;;;20.40;51.89;100984.59;4977156;28;20058;-72
2022/05/02 10:56:44;;;;;;;9.98;3.90;;;;;;;20.41;50.15;100973.69;4976565;28;20051;-72
2022/05/02 10:59:14;;;;;;;8.52;4.00;;;;;;;20.42;48.90;100964.66;4976244;28;20051;-71
2022/05/02 11:02:05;;;;;;;4.65;3.40;;;;;;;20.44;50.15;100967.22;4977518;28;20407;-71
2022/05/02 11:04:57;;;;;;;4.50;4.05;;;;;;;20.44;48.69;100968.06;4979064;28;20396;-74
2022/05/02 11:07:58;;;;;;;4.07;3.67;;;;;;;20.47;48.40;100962.41;4977085;28;20043;-72
2022/05/02 11:10:29;;;;;;;5.90;3.88;;;;;;;20.46;49.39;100957.19;4994394;28;20062;-71
2022/05/02 11:13:20;;;;;;;5.15;4.07;;;;;;;20.47;50.41;100962.41;4978525;28;20054;-72
2022/05/02 11:16:27;;;;;;;6.65;4.55;;;;;;;20.45;49.34;100956.31;4994880;28;20061;-72
2022/05/02 11:22:19;;;;;;;4.85;4.32;;;;;;;20.35;49.15;100946.53;4955314;29;20055;-74
2022/05/02 11:24:59;;;;;;;5.00;4.32;;;;;;;20.31;49.39;100955.84;4956161;29;20082;-72
2022/05/02 11:27:50;;;;;;;7.68;5.75;;;;;;;20.07;48.69;100948.94;4955470;29;20060;-72
2022/05/02 11:30:27;;;;;;;4.95;3.75;;;;;;;20.16;49.31;100945.44;4955016;28;20412;-72
2022/05/02 11:33:09;;;;;;;7.55;6.15;;;;;;;19.89;48.63;100939.78;4955789;29;20073;-72
2022/05/02 11:35:37;;;;;;;6.68;5.82;;;;;;;19.53;49.74;100944.63;4954940;29;20570;-71
2022/05/02 11:38:31;;;;;;;6.88;5.63;;;;;;;19.48;47.75;100939.63;4954773;28;20130;-71
2022/05/02 11:41:07;;;;;;;5.80;5.20;;;;;;;19.53;48.19;100939.25;4955685;29;20110;-73
2022/05/02 11:44:10;;;;;;;5.63;4.55;;;;;;;19.60;49.18;100932.34;4955314;29;20539;-71
2022/05/02 11:47:00;;;;;;;6.05;5.15;;;;;;;19.69;50.89;100937.00;4949105;29;20063;-71
2022/05/02 11:49:36;;;;;;;5.13;4.55;;;;;;;19.78;53.47;100932.66;4936343;29;20063;-71
2022/05/02 11:52:11;;;;;;;4.82;4.43;;;;;;;19.85;50.82;100938.34;4940758;28;20082;-72
2022/05/02 11:54:42;;;;;;;5.13;4.65;;;;;;;19.88;49.70;100930.03;4976827;28;20051;-72
2022/05/02 11:57:09;;;;;;;5.90;5.22;;;;;;;19.94;50.02;100929.50;4976736;28;20055;-72
2022/05/02 11:59:42;;;;;;;5.13;4.63;;;;;;;19.97;54.95;100919.34;4976930;28;20387;-71
2022/05/02 12:02:26;;;;;;;5.45;4.32;;;;;;;20.02;55.55;100923.47;4976410;28;20406;-72
2022/05/02 12:04:57;;;;;;;5.00;4.50;;;;;;;20.03;55.55;100917.09;4976633;28;20053;-81
2022/05/02 12:07:31;;;;;;;6.30;4.65;;;;;;;20.05;55.83;100915.09;4976766;28;20047;-71
2022/05/02 12:10:04;;;;;;;4.45;4.05;;;;;;;20.07;56.33;100910.47;4976541;28;20053;-72
2022/05/02 12:12:33;;;;;;;6.07;4.95;;;;;;;20.09;51.93;100908.47;4976404;28;20047;-72
2022/05/02 12:15:01;;;;;;;6.07;5.18;;;;;;;20.14;51.21;100917.00;4974993;28;20053;-72
2022/05/02 12:17:29;;;;;;;5.28;4.78;;;;;;;20.16;54.73;100906.97;4976892;28;20410;-72
2022/05/02 12:19:56;;;;;;;4.85;4.30;;;;;;;20.17;55.90;100904.13;4976357;28;20046;-72
2022/05/02 12:22:28;;;;;;;4.82;4.43;;;;;;;20.18;56.29;100908.53;4958610;28;20059;-72
2022/05/02 12:25:03;;;;;;;6.07;4.50;;;;;;;20.18;55.69;100907.69;4976404;28;20054;-76
2022/05/02 12:27:33;;;;;;;4.35;3.95;;;;;;;20.19;56.58;100904.00;4974496;28;20050;-72
2022/05/02 12:30:02;;;;;;;5.25;4.30;;;;;;;20.19;57.40;100904.84;4975926;28;20047;-72
2022/05/02 12:32:33;;;;;;;5.65;4.60;;;;;;;20.21;57.78;100907.41;4975542;28;20054;-72
2022/05/02 12:35:04;;;;;;;5.70;4.50;;;;;;;20.18;57.90;100908.53;4988237;28;20049;-72